ESUI weather

Mellansel Airport
Mellansel, Västernorrlands län, Sweden

Public forecast

Using degrees Celsius for public forecast. Weather courtesy of forecast.io.

Closest aviation weather report (METAR) to Mellansel Airport

Closest report is Örnsköldsvik Airport, 17.8 nm (33.0 km) E. Retrieved 2020/07/10 09:50 UTC (28 minutes ago):

ESNO 100950Z AUTO 30013KT 270V330 9999 OVC057/// 16/04 Q1007

Closest aviation forecast (TAF) to Mellansel Airport

Forecast is more than 12 hours old.

Closest forecast is Örnsköldsvik Airport, 17.8 nm (33.0 km) E. Retrieved 2015/08/24 09:33 UTC (5 years ago):

TAF ESNO 240830Z 2409/2424 18004KT CAVOK